Time;durP1;ratioP1;P1;durP2;ratioP2;P2;SDS_P1;SDS_P2;PMS_P1;PMS_P2;Temp;Humidity;BMP_temperature;BMP_pressure;BME280_temperature;BME280_humidity;BME280_pressure;Samples;Min_cycle;Max_cycle;Signal;HPM_P1;HPM_P2
2021/06/09 00:00:28;;;;;;;10.57;8.43;;;18.90;99.90;;;;;;4999288;28;20441;-81
2021/06/09 00:02:55;;;;;;;11.27;8.95;;;18.80;99.90;;;;;;4996740;28;20144;-82
2021/06/09 00:05:20;;;;;;;13.88;9.27;;;18.80;99.90;;;;;;5004704;28;20026;-80
2021/06/09 00:07:46;;;;;;;18.67;10.07;;;18.80;99.90;;;;;;5003257;28;20059;-81
2021/06/09 00:10:13;;;;;;;11.38;9.15;;;18.80;99.90;;;;;;5012726;28;20034;-80
2021/06/09 00:12:39;;;;;;;12.13;9.13;;;;;;;;;;5000612;28;20109;-81
2021/06/09 00:15:07;;;;;;;10.18;8.90;;;;;;;;;;5002318;28;20030;-82
2021/06/09 00:17:32;;;;;;;11.02;9.10;;;18.70;99.90;;;;;;5001803;28;20029;-77
2021/06/09 00:19:58;;;;;;;11.02;8.73;;;20.50;99.90;;;;;;5009124;28;20026;-81
2021/06/09 00:22:24;;;;;;;11.80;8.57;;;18.70;99.90;;;;;;5004833;28;20045;-81
2021/06/09 00:24:49;;;;;;;11.10;8.23;;;18.70;99.90;;;;;;4997179;28;20384;-81
2021/06/09 00:27:15;;;;;;;10.70;8.55;;;19.30;99.90;;;;;;5002263;28;20022;-83
2021/06/09 00:29:40;;;;;;;10.40;7.72;;;19.90;99.90;;;;;;5001854;28;20030;-81
2021/06/09 00:32:06;;;;;;;9.63;7.90;;;19.40;99.90;;;;;;5004016;28;20029;-80
2021/06/09 00:34:33;;;;;;;10.40;8.18;;;18.60;99.90;;;;;;4998709;28;20030;-81
2021/06/09 00:36:59;;;;;;;10.13;7.93;;;18.60;99.90;;;;;;5001176;28;20393;-79
2021/06/09 00:39:24;;;;;;;10.02;8.30;;;18.60;99.90;;;;;;5000234;28;20049;-80
2021/06/09 00:41:50;;;;;;;10.95;8.65;;;18.60;99.90;;;;;;4999636;28;20026;-81
2021/06/09 00:44:16;;;;;;;12.02;8.45;;;18.60;99.90;;;;;;4997444;28;20025;-78
2021/06/09 00:46:43;;;;;;;10.65;8.82;;;18.60;99.90;;;;;;5002217;28;20036;-84
2021/06/09 00:49:09;;;;;;;11.90;9.00;;;;;;;;;;5004075;28;20038;-80
2021/06/09 00:51:35;;;;;;;10.13;8.32;;;18.50;99.90;;;;;;5000753;28;20052;-80
2021/06/09 00:54:04;;;;;;;10.18;9.13;;;18.50;99.90;;;;;;5004009;28;20030;-80
2021/06/09 00:56:33;;;;;;;11.10;8.43;;;18.50;99.90;;;;;;5001343;28;20080;-81
2021/06/09 00:58:59;;;;;;;11.50;8.45;;;18.50;99.90;;;;;;4990183;28;20045;-82
2021/06/09 01:01:27;;;;;;;9.80;8.45;;;18.60;99.90;;;;;;4999946;28;20033;-81
2021/06/09 01:03:53;;;;;;;11.88;8.90;;;18.40;99.90;;;;;;5005993;28;20040;-80
2021/06/09 01:06:20;;;;;;;12.25;8.95;;;18.40;99.90;;;;;;5001650;28;20038;-81
2021/06/09 01:08:46;;;;;;;12.48;8.70;;;18.40;99.90;;;;;;5003882;28;20029;-81
2021/06/09 01:11:15;;;;;;;13.23;9.25;;;18.40;99.90;;;;;;5005092;28;20026;-80
2021/06/09 01:13:42;;;;;;;11.23;8.75;;;;;;;;;;5001828;28;20030;-83
2021/06/09 01:16:08;;;;;;;12.15;9.07;;;;;;;;;;5006800;28;20273;-80
2021/06/09 01:18:35;;;;;;;11.05;9.10;;;18.40;99.90;;;;;;5004122;28;20038;-82
2021/06/09 01:21:01;;;;;;;11.80;9.75;;;;;;;;;;5006422;28;20045;-81
2021/06/09 01:23:28;;;;;;;12.00;9.73;;;18.40;99.90;;;;;;5005682;28;20115;-80
2021/06/09 01:25:54;;;;;;;14.13;10.02;;;18.40;99.90;;;;;;5005512;28;20041;-82
2021/06/09 01:28:20;;;;;;;14.32;9.30;;;18.40;99.90;;;;;;4999878;28;20046;-81
2021/06/09 01:30:46;;;;;;;16.77;10.88;;;;;;;;;;5000684;28;20038;-81
2021/06/09 01:33:13;;;;;;;19.80;11.68;;;18.50;99.90;;;;;;5005235;28;20034;-83
2021/06/09 01:35:39;;;;;;;11.48;9.40;;;;;;;;;;5002470;28;20030;-80
2021/06/09 01:38:06;;;;;;;14.23;9.07;;;18.50;99.90;;;;;;5001716;28;20030;-81
2021/06/09 01:40:33;;;;;;;16.83;10.32;;;18.40;99.90;;;;;;5004427;28;20459;-81
2021/06/09 01:42:58;;;;;;;11.25;9.63;;;18.50;99.90;;;;;;5005076;28;20377;-82
2021/06/09 01:45:26;;;;;;;13.30;9.07;;;18.40;99.90;;;;;;5008023;28;20041;-82
2021/06/09 01:47:54;;;;;;;11.65;9.57;;;19.20;99.90;;;;;;5004304;28;20092;-80
2021/06/09 01:50:21;;;;;;;16.30;10.05;;;18.30;99.90;;;;;;5000302;28;20077;-80
2021/06/09 01:52:48;;;;;;;12.52;9.27;;;18.30;99.90;;;;;;5002458;28;20034;-78
2021/06/09 01:55:16;;;;;;;10.68;9.00;;;18.20;99.90;;;;;;5001456;28;20038;-81
2021/06/09 01:57:42;;;;;;;12.65;8.95;;;;;;;;;;5003238;28;20030;-81
2021/06/09 02:00:17;;;;;;;13.35;9.25;;;18.20;99.90;;;;;;5005640;28;20037;-82
2021/06/09 02:02:44;;;;;;;12.27;9.15;;;18.10;99.90;;;;;;4992825;28;20534;-81
2021/06/09 02:05:11;;;;;;;11.50;9.18;;;18.00;99.90;;;;;;5003723;28;20739;-83
2021/06/09 02:07:40;;;;;;;11.18;9.55;;;18.00;99.90;;;;;;5007086;28;20022;-83
2021/06/09 02:10:14;;;;;;;13.40;9.52;;;17.90;99.90;;;;;;5004622;28;20072;-83
2021/06/09 02:12:42;;;;;;;11.32;9.80;;;17.90;99.90;;;;;;5006495;28;20480;-80
2021/06/09 02:15:09;;;;;;;11.80;9.35;;;17.30;99.90;;;;;;4998558;28;20026;-81
2021/06/09 02:17:35;;;;;;;12.48;10.48;;;17.80;99.90;;;;;;5002437;28;20038;-81
2021/06/09 02:20:01;;;;;;;12.15;9.65;;;;;;;;;;5004367;28;20030;-81
2021/06/09 02:22:28;;;;;;;13.27;10.63;;;17.70;99.90;;;;;;5008556;28;20026;-80
2021/06/09 02:24:54;;;;;;;13.38;10.15;;;;;;;;;;5000466;28;20026;-82
2021/06/09 02:27:21;;;;;;;12.63;10.10;;;;;;;;;;4998940;28;20049;-83
2021/06/09 02:29:46;;;;;;;13.25;9.90;;;17.60;99.90;;;;;;5005132;28;20022;-83
2021/06/09 02:32:17;;;;;;;12.77;10.55;;;17.60;99.90;;;;;;5006405;28;20030;-80
2021/06/09 02:34:45;;;;;;;;;;;17.50;99.90;;;;;;5000657;28;20060;-81
2021/06/09 02:37:11;;;;;;;13.13;10.98;;;17.50;99.90;;;;;;5003025;28;19929;-83
2021/06/09 02:39:37;;;;;;;12.63;10.10;;;;;;;;;;5006847;28;20034;-77
2021/06/09 02:42:03;;;;;;;12.65;11.10;;;17.40;99.90;;;;;;5004766;28;20063;-79
2021/06/09 02:44:28;;;;;;;15.98;11.10;;;17.30;99.90;;;;;;5004509;28;20052;-81
2021/06/09 02:47:03;;;;;;;15.88;10.07;;;;;;;;;;5026498;28;20056;-82
2021/06/09 02:49:32;;;;;;;13.55;10.50;;;17.30;99.90;;;;;;5007322;28;20036;-78
2021/06/09 02:52:14;;;;;;;14.15;11.30;;;17.20;99.90;;;;;;5008745;28;20906;-82
2021/06/09 02:54:52;;;;;;;14.40;11.25;;;17.20;99.90;;;;;;4993139;28;20136;-82
2021/06/09 02:57:48;;;;;;;12.93;11.30;;;17.20;99.90;;;;;;5009677;28;20066;-81
2021/06/09 03:00:19;;;;;;;16.33;11.50;;;17.20;99.90;;;;;;5020751;28;20121;-81
2021/06/09 03:03:17;;;;;;;15.40;11.32;;;17.10;99.90;;;;;;5007922;28;20037;-81
2021/06/09 03:05:55;;;;;;;16.38;11.85;;;17.10;99.90;;;;;;4982152;28;20035;-82
2021/06/09 03:08:27;;;;;;;15.27;12.52;;;17.10;99.90;;;;;;5009503;28;20224;-80
2021/06/09 03:11:04;;;;;;;15.35;11.80;;;17.00;99.90;;;;;;5008693;28;20034;-79
2021/06/09 03:14:04;;;;;;;16.15;12.27;;;17.00;99.90;;;;;;5002720;28;20042;-82
2021/06/09 03:16:49;;;;;;;15.40;11.88;;;17.00;99.90;;;;;;5007082;28;20042;-82
2021/06/09 03:19:21;;;;;;;14.07;11.05;;;17.00;99.90;;;;;;5007606;28;20034;-82
2021/06/09 03:21:59;;;;;;;16.17;12.23;;;17.00;99.90;;;;;;5004894;28;20076;-82
2021/06/09 03:24:38;;;;;;;15.13;11.77;;;16.90;99.90;;;;;;5002324;28;20117;-81
2021/06/09 03:27:18;;;;;;;15.07;11.57;;;16.90;99.90;;;;;;5011181;28;21605;-81
2021/06/09 03:29:44;;;;;;;15.73;12.02;;;;;;;;;;5006582;28;20060;-83
2021/06/09 03:32:31;;;;;;;14.60;12.38;;;16.90;99.90;;;;;;5020264;28;20042;-80
2021/06/09 03:35:15;;;;;;;17.98;12.00;;;17.00;99.90;;;;;;5009034;28;20030;-80
2021/06/09 03:37:46;;;;;;;15.52;12.00;;;16.90;99.90;;;;;;5007788;28;20057;-83
2021/06/09 03:40:18;;;;;;;13.80;11.52;;;16.90;99.90;;;;;;5009266;28;20038;-84
2021/06/09 03:42:49;;;;;;;14.73;11.52;;;17.00;99.90;;;;;;5003067;28;20030;-82
2021/06/09 03:45:16;;;;;;;16.50;11.27;;;16.90;99.90;;;;;;5023682;28;20031;-81
2021/06/09 03:47:44;;;;;;;17.30;12.30;;;16.90;99.90;;;;;;5014604;28;20040;-83
2021/06/09 03:50:10;;;;;;;14.95;11.40;;;17.40;99.90;;;;;;5010804;28;20034;-78
2021/06/09 03:52:37;;;;;;;14.77;11.85;;;17.10;99.90;;;;;;5013322;28;20044;-81
2021/06/09 03:55:10;;;;;;;15.68;10.88;;;16.80;99.90;;;;;;4994896;28;20101;-81
2021/06/09 03:57:36;;;;;;;14.90;11.45;;;16.80;99.90;;;;;;5004310;28;20034;-82
2021/06/09 04:00:06;;;;;;;14.48;11.35;;;16.70;99.90;;;;;;5006601;28;20048;-81
2021/06/09 04:02:33;;;;;;;15.00;11.57;;;16.70;99.90;;;;;;5009725;28;20034;-82
2021/06/09 04:05:01;;;;;;;18.55;11.48;;;;;;;;;;5004416;28;20373;-83
2021/06/09 04:07:28;;;;;;;15.77;12.25;;;16.70;99.90;;;;;;5015287;28;20034;-81
2021/06/09 04:09:54;;;;;;;25.85;16.00;;;;;;;;;;4997892;28;20115;-79
2021/06/09 04:12:21;;;;;;;42.00;21.27;;;16.70;99.90;;;;;;5014063;28;20026;-81
2021/06/09 04:14:50;;;;;;;17.55;12.23;;;16.70;99.90;;;;;;5001683;28;20257;-82
2021/06/09 04:17:23;;;;;;;19.90;11.65;;;16.70;99.90;;;;;;4990209;28;20045;-81
2021/06/09 04:19:52;;;;;;;14.02;11.35;;;16.70;99.90;;;;;;5010359;28;20496;-81
2021/06/09 04:22:20;;;;;;;15.43;12.15;;;;;;;;;;5006397;28;20022;-80
2021/06/09 04:24:47;;;;;;;16.00;12.88;;;;;;;;;;5011665;28;20034;-80
2021/06/09 04:27:38;;;;;;;17.00;12.55;;;16.70;99.90;;;;;;4999954;28;20088;-79
2021/06/09 04:30:05;;;;;;;16.85;11.98;;;16.70;99.90;;;;;;4986097;28;20034;-81
2021/06/09 04:32:50;;;;;;;17.02;11.55;;;16.70;99.90;;;;;;5002680;28;20030;-81
2021/06/09 04:35:16;;;;;;;20.50;12.00;;;16.70;99.90;;;;;;5014937;28;20273;-80
2021/06/09 04:37:42;;;;;;;15.32;11.40;;;16.70;99.90;;;;;;5011922;28;20420;-82
2021/06/09 04:40:13;;;;;;;14.27;11.68;;;16.70;99.90;;;;;;5011791;28;20034;-78
2021/06/09 04:42:41;;;;;;;18.95;14.13;;;16.70;99.90;;;;;;4996805;28;20378;-79
2021/06/09 04:45:07;;;;;;;16.02;11.40;;;16.80;99.90;;;;;;5011042;28;20030;-81
2021/06/09 04:47:33;;;;;;;27.42;15.30;;;;;;;;;;5011570;28;20023;-80
2021/06/09 04:49:58;;;;;;;16.55;12.18;;;17.00;99.90;;;;;;5017686;28;20472;-83
2021/06/09 04:52:24;;;;;;;19.70;11.73;;;16.90;99.90;;;;;;5011789;28;20052;-80
2021/06/09 04:54:50;;;;;;;14.43;11.07;;;17.20;99.90;;;;;;5008575;28;20064;-79
2021/06/09 04:57:16;;;;;;;14.20;11.60;;;;;;;;;;5007980;28;20046;-80
2021/06/09 04:59:41;;;;;;;15.77;12.15;;;17.20;99.90;;;;;;5008421;28;20034;-80
2021/06/09 05:02:07;;;;;;;16.27;11.38;;;17.20;99.90;;;;;;5003354;28;20022;-80
2021/06/09 05:04:33;;;;;;;14.70;11.52;;;;;;;;;;5002159;28;20037;-77
2021/06/09 05:06:59;;;;;;;15.25;11.80;;;;;;;;;;5003639;28;20029;-81
2021/06/09 05:09:25;;;;;;;14.80;11.35;;;17.30;99.90;;;;;;5014865;28;20033;-83
2021/06/09 05:12:04;;;;;;;16.20;11.85;;;17.40;99.90;;;;;;5009221;28;20056;-83
2021/06/09 05:14:53;;;;;;;14.52;12.07;;;17.40;99.90;;;;;;5007214;28;20473;-81
2021/06/09 05:17:23;;;;;;;19.17;12.02;;;17.50;99.90;;;;;;5000116;28;20056;-84
2021/06/09 05:19:51;;;;;;;14.02;11.02;;;17.90;99.90;;;;;;5009963;28;20260;-81
2021/06/09 05:22:45;;;;;;;12.75;9.93;;;17.90;99.90;;;;;;5005548;28;20038;-83
2021/06/09 05:25:12;;;;;;;12.68;9.57;;;19.60;99.90;;;;;;5004949;28;20698;-81
2021/06/09 05:27:41;;;;;;;12.35;9.60;;;19.60;99.90;;;;;;5010582;28;20023;-81
2021/06/09 05:30:07;;;;;;;13.23;9.43;;;21.30;99.90;;;;;;5015065;28;20049;-81
2021/06/09 05:32:35;;;;;;;11.40;9.35;;;21.40;99.90;;;;;;5009494;28;20121;-81
2021/06/09 05:35:01;;;;;;;12.93;9.20;;;;;;;;;;5010415;28;20044;-80
2021/06/09 05:37:28;;;;;;;10.38;8.48;;;22.50;99.90;;;;;;5008049;28;20033;-82
2021/06/09 05:39:58;;;;;;;9.50;8.18;;;22.80;99.90;;;;;;5005070;28;20041;-80
2021/06/09 05:42:24;;;;;;;;;;;23.00;97.80;;;;;;5006147;28;20060;-79
2021/06/09 05:44:53;;;;;;;11.18;7.60;;;22.90;97.50;;;;;;5002843;28;19909;-80
2021/06/09 05:47:19;;;;;;;8.77;7.53;;;;;;;;;;5005606;28;20022;-81
2021/06/09 05:49:45;;;;;;;9.60;8.00;;;;;;;;;;5005319;28;20030;-80
2021/06/09 05:52:12;;;;;;;10.13;8.25;;;;;;;;;;5008556;28;20057;-81
2021/06/09 05:54:41;;;;;;;9.10;8.20;;;22.50;96.80;;;;;;5012062;28;20034;-82
2021/06/09 05:57:10;;;;;;;11.60;8.70;;;22.50;97.20;;;;;;5016859;28;20057;-80
2021/06/09 05:59:37;;;;;;;12.32;8.77;;;22.50;97.00;;;;;;5010017;28;20447;-77
2021/06/09 06:02:03;;;;;;;10.70;8.82;;;22.30;96.70;;;;;;5010082;28;20612;-80
2021/06/09 06:04:31;;;;;;;12.75;8.10;;;22.30;97.00;;;;;;5007171;28;20029;-80
2021/06/09 06:06:58;;;;;;;9.60;7.90;;;22.60;96.40;;;;;;5013945;28;20026;-77
2021/06/09 06:09:24;;;;;;;9.90;8.88;;;23.00;95.30;;;;;;5031767;28;20022;-81
2021/06/09 06:11:51;;;;;;;13.02;9.18;;;23.10;95.50;;;;;;5015904;28;20051;-81
2021/06/09 06:14:18;;;;;;;9.80;8.45;;;;;;;;;;5012338;28;20046;-81
2021/06/09 06:16:54;;;;;;;11.73;8.32;;;22.40;95.20;;;;;;5015349;28;20025;-79
2021/06/09 06:19:21;;;;;;;11.23;8.60;;;;;;;;;;5017868;28;20500;-81
2021/06/09 06:21:48;;;;;;;10.82;8.93;;;22.50;96.40;;;;;;5009829;28;20022;-82
2021/06/09 06:24:18;;;;;;;11.98;8.88;;;22.50;96.20;;;;;;5012067;28;20037;-81
2021/06/09 06:26:46;;;;;;;9.07;8.13;;;22.60;95.60;;;;;;5016966;28;20033;-80
2021/06/09 06:29:12;;;;;;;11.15;8.50;;;;;;;;;;5012587;28;20522;-81
2021/06/09 06:31:38;;;;;;;9.38;8.00;;;22.80;95.20;;;;;;5010102;28;20081;-80
2021/06/09 06:34:05;;;;;;;11.55;7.85;;;22.70;95.30;;;;;;5008899;28;20177;-78
2021/06/09 06:36:31;;;;;;;9.52;7.72;;;22.60;96.00;;;;;;5017502;28;20065;-79
2021/06/09 06:38:57;;;;;;;9.30;7.82;;;22.60;96.20;;;;;;5010895;28;20034;-79
2021/06/09 06:41:26;;;;;;;9.75;8.18;;;22.40;96.00;;;;;;5011662;28;20030;-78
2021/06/09 06:43:52;;;;;;;9.63;8.35;;;;;;;;;;5012052;28;20155;-79
2021/06/09 06:46:19;;;;;;;11.75;8.40;;;22.30;96.60;;;;;;5013907;28;20485;-79
2021/06/09 06:48:46;;;;;;;11.07;8.48;;;22.20;96.70;;;;;;5007496;28;20788;-78
2021/06/09 06:51:14;;;;;;;9.15;7.68;;;;;;;;;;5003773;28;20085;-78
2021/06/09 06:53:48;;;;;;;9.43;7.50;;;22.20;96.70;;;;;;5008783;28;20037;-79
2021/06/09 06:56:14;;;;;;;8.68;7.75;;;;;;;;;;5015109;28;20052;-81
2021/06/09 06:58:40;;;;;;;9.43;8.23;;;;;;;;;;5019328;28;20030;-80
2021/06/09 07:01:09;;;;;;;10.32;7.82;;;22.10;97.00;;;;;;5013417;28;20025;-80
2021/06/09 07:03:36;;;;;;;12.75;8.88;;;22.10;97.20;;;;;;5011382;28;20132;-81
2021/06/09 07:06:06;;;;;;;11.07;8.43;;;22.20;96.60;;;;;;5004506;28;20571;-80
2021/06/09 07:08:31;;;;;;;10.45;7.70;;;22.20;96.80;;;;;;5024639;28;20034;-81
2021/06/09 07:10:58;;;;;;;10.25;7.75;;;;;;;;;;5013868;28;20409;-79
2021/06/09 07:13:24;;;;;;;11.60;7.70;;;22.20;96.90;;;;;;5012550;28;20045;-79
2021/06/09 07:15:54;;;;;;;9.60;8.18;;;22.40;96.90;;;;;;5005156;28;20094;-78
2021/06/09 07:18:23;;;;;;;10.80;7.15;;;22.50;96.70;;;;;;5008034;28;20038;-81
2021/06/09 07:20:49;;;;;;;10.32;8.25;;;;;;;;;;5009536;28;20063;-77
2021/06/09 07:23:15;;;;;;;10.27;7.68;;;;;;;;;;5013050;28;20157;-79
2021/06/09 07:25:41;;;;;;;11.43;8.25;;;22.70;96.00;;;;;;5005892;28;20057;-79
2021/06/09 07:28:08;;;;;;;8.52;6.50;;;22.80;96.00;;;;;;4999925;28;20026;-82
2021/06/09 07:30:37;;;;;;;9.93;6.97;;;22.90;95.60;;;;;;4985845;28;20038;-78
2021/06/09 07:33:04;;;;;;;8.40;6.38;;;22.90;95.70;;;;;;5003678;28;20031;-82
2021/06/09 07:35:31;;;;;;;10.75;6.85;;;22.90;95.90;;;;;;5006807;28;20069;-80
2021/06/09 07:38:08;;;;;;;8.35;6.50;;;23.00;95.70;;;;;;5015414;28;20030;-80
2021/06/09 07:40:38;;;;;;;8.98;6.05;;;23.00;95.90;;;;;;5011007;28;20036;-81
2021/06/09 07:43:08;;;;;;;8.02;6.53;;;23.00;95.90;;;;;;5012088;28;20556;-81
2021/06/09 07:45:35;;;;;;;9.10;6.40;;;23.10;95.50;;;;;;5012534;28;20028;-81
2021/06/09 07:48:01;;;;;;;8.75;5.90;;;;;;;;;;5030464;28;20030;-80
2021/06/09 07:50:39;;;;;;;7.40;5.53;;;23.10;95.70;;;;;;5015346;28;20026;-80
2021/06/09 07:53:07;;;;;;;8.60;5.50;;;23.20;95.50;;;;;;5011343;28;20057;-82
2021/06/09 07:55:34;;;;;;;7.15;5.15;;;23.30;95.70;;;;;;5015301;28;20065;-79
2021/06/09 07:58:02;;;;;;;7.55;5.18;;;23.30;95.80;;;;;;5012564;28;20233;-79
2021/06/09 08:00:28;;;;;;;5.90;4.85;;;;;;;;;;5012770;28;20041;-80
2021/06/09 08:02:56;;;;;;;7.82;5.10;;;23.50;94.40;;;;;;5015393;28;20022;-80
2021/06/09 08:05:24;;;;;;;5.72;4.93;;;23.70;94.10;;;;;;5034738;28;20097;-79
2021/06/09 08:07:51;;;;;;;6.70;5.38;;;23.70;94.20;;;;;;5016464;28;20032;-79
2021/06/09 08:10:17;;;;;;;6.50;5.30;;;;;;;;;;5012248;28;20038;-80
2021/06/09 08:12:43;;;;;;;7.38;5.32;;;;;;;;;;5012984;28;20141;-80
2021/06/09 08:15:11;;;;;;;5.70;5.05;;;23.80;93.00;;;;;;5026285;28;20038;-82
2021/06/09 08:17:44;;;;;;;9.70;6.68;;;;;;;;;;5005012;28;20053;-81
2021/06/09 08:20:12;;;;;;;7.88;5.80;;;24.00;92.20;;;;;;5013670;28;20033;-81
2021/06/09 08:22:39;;;;;;;9.07;6.82;;;24.10;92.90;;;;;;5005069;28;20022;-80
2021/06/09 08:25:06;;;;;;;8.18;6.25;;;24.10;92.80;;;;;;5010104;28;20032;-79
2021/06/09 08:27:32;;;;;;;8.80;7.35;;;;;;;;;;5007617;28;20112;-80
2021/06/09 08:29:57;;;;;;;10.40;7.00;;;24.20;92.40;;;;;;5015285;28;20064;-79
2021/06/09 08:32:23;;;;;;;8.32;6.85;;;;;;;;;;5013225;28;20057;-81
2021/06/09 08:34:49;;;;;;;7.57;6.43;;;;;;;;;;5007806;28;20101;-79
2021/06/09 08:37:15;;;;;;;7.63;6.75;;;;;;;;;;5010944;28;20040;-78
2021/06/09 08:39:42;;;;;;;7.85;6.43;;;24.40;91.60;;;;;;5010615;28;20466;-79
2021/06/09 08:42:08;;;;;;;8.43;6.68;;;24.50;91.80;;;;;;5007985;28;20036;-79
2021/06/09 08:44:39;;;;;;;6.55;5.85;;;24.60;90.90;;;;;;5027784;28;20592;-81
2021/06/09 08:47:08;;;;;;;11.57;7.43;;;24.60;90.90;;;;;;5011218;28;20032;-79
2021/06/09 08:49:34;;;;;;;8.80;6.57;;;;;;;;;;5010995;28;20025;-80
2021/06/09 08:52:03;;;;;;;9.55;7.13;;;24.80;90.10;;;;;;5006690;28;20104;-80
2021/06/09 08:54:30;;;;;;;7.90;6.50;;;25.00;87.30;;;;;;5011115;28;20157;-79
2021/06/09 08:56:56;;;;;;;7.93;6.85;;;;;;;;;;5008210;28;20041;-80
2021/06/09 08:59:23;;;;;;;13.27;9.27;;;25.10;85.80;;;;;;5013883;28;20101;-81
2021/06/09 09:01:49;;;;;;;10.02;8.23;;;25.20;85.30;;;;;;5007056;28;20022;-80
2021/06/09 09:04:15;;;;;;;9.32;7.18;;;25.10;85.20;;;;;;5009381;28;20026;-81
2021/06/09 09:06:41;;;;;;;8.07;6.82;;;;;;;;;;5011504;28;20053;-80
2021/06/09 09:09:07;;;;;;;11.63;7.10;;;;;;;;;;5010393;28;20033;-79
2021/06/09 09:11:34;;;;;;;9.95;7.03;;;25.30;82.80;;;;;;5012091;28;20061;-79
2021/06/09 09:14:00;;;;;;;7.40;6.13;;;25.40;83.40;;;;;;5014978;28;20057;-79
2021/06/09 09:16:26;;;;;;;8.70;6.68;;;;;;;;;;5010906;28;20031;-79
2021/06/09 09:19:02;;;;;;;8.52;6.93;;;;;;;;;;5012200;28;20056;-77
2021/06/09 09:21:38;;;;;;;8.13;6.85;;;;;;;;;;5015293;28;20050;-78
2021/06/09 09:24:08;;;;;;;9.45;6.07;;;25.30;79.20;;;;;;5008895;28;20074;-79
2021/06/09 09:26:35;;;;;;;7.28;6.05;;;;;;;;;;5008351;28;20028;-79
2021/06/09 09:29:15;;;;;;;7.22;6.38;;;25.50;77.50;;;;;;5011870;28;20035;-78
2021/06/09 09:32:00;;;;;;;7.50;5.93;;;25.60;78.60;;;;;;5021667;28;20022;-79
2021/06/09 09:34:47;;;;;;;8.20;6.50;;;25.60;79.30;;;;;;5013020;28;20022;-79
2021/06/09 09:37:25;;;;;;;8.27;6.15;;;25.70;76.60;;;;;;5009904;28;20654;-81
2021/06/09 09:40:16;;;;;;;7.45;5.65;;;25.70;76.20;;;;;;5008414;28;20026;-78
2021/06/09 09:42:48;;;;;;;7.53;5.95;;;25.80;75.90;;;;;;5010723;28;20026;-80
2021/06/09 09:45:27;;;;;;;6.82;5.32;;;26.00;74.20;;;;;;5020476;28;20025;-80
2021/06/09 09:48:12;;;;;;;6.88;5.65;;;;;;;;;;5016418;28;20029;-80
2021/06/09 09:50:52;;;;;;;7.13;5.40;;;25.90;76.00;;;;;;5011932;28;20030;-81
2021/06/09 09:53:22;;;;;;;6.60;5.65;;;25.80;75.20;;;;;;5021190;28;20040;-80
2021/06/09 09:56:08;;;;;;;8.50;5.90;;;25.80;75.40;;;;;;5014801;28;20033;-81
2021/06/09 09:58:54;;;;;;;9.75;5.28;;;25.80;74.60;;;;;;5011842;28;20093;-78
2021/06/09 10:01:25;;;;;;;11.63;5.57;;;26.00;75.70;;;;;;5012316;28;20031;-82
2021/06/09 10:03:54;;;;;;;7.63;4.85;;;26.20;73.50;;;;;;5029867;28;20548;-80
2021/06/09 10:06:46;;;;;;;7.45;5.22;;;25.40;71.10;;;;;;5016213;28;20038;-83
2021/06/09 10:09:25;;;;;;;6.75;5.20;;;27.10;72.30;;;;;;5013277;28;20244;-82
2021/06/09 10:11:59;;;;;;;5.63;5.03;;;26.40;71.60;;;;;;5012962;28;20026;-80
2021/06/09 10:14:33;;;;;;;5.20;4.40;;;26.40;70.20;;;;;;5016687;28;20718;-80
2021/06/09 10:17:11;;;;;;;8.48;6.18;;;26.60;67.30;;;;;;5009397;28;21019;-80
2021/06/09 10:19:42;;;;;;;6.40;4.40;;;26.60;68.40;;;;;;5013679;28;20575;-76
2021/06/09 10:22:19;;;;;;;4.68;3.95;;;;;;;;;;5016644;28;20018;-82
2021/06/09 10:24:57;;;;;;;5.18;4.15;;;26.70;67.60;;;;;;5020333;28;20030;-80
2021/06/09 10:27:36;;;;;;;4.32;3.92;;;26.80;66.70;;;;;;5011308;28;20027;-80
2021/06/09 10:30:20;;;;;;;5.13;4.00;;;26.80;66.80;;;;;;5016857;28;20045;-79
2021/06/09 10:32:52;;;;;;;5.35;3.90;;;26.50;67.00;;;;;;5013845;28;20029;-81
2021/06/09 10:35:19;;;;;;;6.15;3.92;;;26.60;68.10;;;;;;5015008;28;20036;-81
2021/06/09 10:37:47;;;;;;;4.55;3.90;;;26.70;68.50;;;;;;5011847;28;21341;-79
2021/06/09 10:40:17;;;;;;;5.18;4.30;;;26.60;68.50;;;;;;5009617;28;20031;-80
2021/06/09 10:42:45;;;;;;;5.18;4.00;;;26.90;66.50;;;;;;5009134;28;20041;-81
2021/06/09 10:45:12;;;;;;;3.75;3.28;;;26.90;67.00;;;;;;5014789;28;20362;-81
2021/06/09 10:47:38;;;;;;;6.63;3.70;;;27.00;64.40;;;;;;5012545;28;20045;-80
2021/06/09 10:50:08;;;;;;;4.93;3.70;;;27.00;64.40;;;;;;5020264;28;20029;-79
2021/06/09 10:52:34;;;;;;;5.70;3.38;;;27.10;64.00;;;;;;5019400;28;20034;-81
2021/06/09 10:55:05;;;;;;;5.15;3.40;;;27.20;64.30;;;;;;5021554;28;20489;-80
2021/06/09 10:57:31;;;;;;;4.53;3.45;;;;;;;;;;5009831;28;20038;-80
2021/06/09 10:59:57;;;;;;;6.50;4.90;;;;;;;;;;5016699;28;20033;-82
2021/06/09 11:02:24;;;;;;;5.70;4.13;;;27.40;64.20;;;;;;5020082;28;20026;-80
2021/06/09 11:04:53;;;;;;;6.78;3.95;;;27.40;64.40;;;;;;5014924;28;20125;-80
2021/06/09 11:07:29;;;;;;;4.22;3.75;;;27.30;64.40;;;;;;5013587;28;20032;-81
2021/06/09 11:10:06;;;;;;;5.18;3.28;;;27.40;63.10;;;;;;5013684;28;20546;-82
2021/06/09 11:12:38;;;;;;;7.43;4.97;;;27.40;62.20;;;;;;5014113;28;20534;-81
2021/06/09 11:15:13;;;;;;;5.30;3.88;;;27.20;61.80;;;;;;5015660;28;20038;-79
2021/06/09 11:17:54;;;;;;;14.57;4.95;;;27.10;61.50;;;;;;5010261;28;20038;-81
2021/06/09 11:20:32;;;;;;;4.18;3.22;;;27.00;61.80;;;;;;5015024;28;20032;-81
2021/06/09 11:23:18;;;;;;;7.60;3.75;;;27.10;61.30;;;;;;5012833;28;20021;-81
2021/06/09 11:25:47;;;;;;;4.38;3.17;;;27.30;62.60;;;;;;5014201;28;20030;-81
2021/06/09 11:28:16;;;;;;;8.07;5.07;;;27.30;63.00;;;;;;5016714;28;20021;-82
2021/06/09 11:30:51;;;;;;;4.95;3.40;;;27.50;62.40;;;;;;5015233;28;20289;-81
2021/06/09 11:33:28;;;;;;;4.32;3.38;;;27.50;62.10;;;;;;5022145;28;20031;-81
2021/06/09 11:35:58;;;;;;;4.32;3.42;;;;;;;;;;5013469;28;20045;-81
2021/06/09 11:38:32;;;;;;;4.10;3.33;;;27.50;62.10;;;;;;5013308;28;20038;-80
2021/06/09 11:41:10;;;;;;;3.75;3.30;;;27.70;62.00;;;;;;5010413;28;20542;-80
2021/06/09 11:43:40;;;;;;;5.72;3.50;;;27.80;61.60;;;;;;5015450;28;20026;-82
2021/06/09 11:46:22;;;;;;;4.68;3.40;;;27.80;61.80;;;;;;5010784;28;20042;-83
2021/06/09 11:48:52;;;;;;;5.05;3.58;;;27.80;61.50;;;;;;5012347;28;20294;-79
2021/06/09 11:51:44;;;;;;;5.00;3.50;;;27.80;61.80;;;;;;5013198;28;20038;-81
2021/06/09 11:54:39;;;;;;;7.50;3.90;;;28.00;61.90;;;;;;5010123;28;20053;-79
2021/06/09 11:57:18;;;;;;;4.35;3.53;;;27.90;61.80;;;;;;5013973;28;20034;-80
2021/06/09 11:59:44;;;;;;;5.15;3.72;;;;;;;;;;4999350;28;20445;-82
2021/06/09 12:02:26;;;;;;;5.60;3.40;;;28.20;60.10;;;;;;5005000;28;20092;-80
2021/06/09 12:04:55;;;;;;;4.35;3.53;;;28.30;59.10;;;;;;5013067;28;20704;-80
2021/06/09 12:07:29;;;;;;;6.70;3.80;;;28.30;59.50;;;;;;5032202;28;20026;-78
2021/06/09 12:09:59;;;;;;;4.00;3.42;;;28.20;60.80;;;;;;5008083;28;20034;-80
2021/06/09 12:12:30;;;;;;;5.53;3.70;;;28.20;60.40;;;;;;5015273;28;20034;-81
2021/06/09 12:15:02;;;;;;;5.15;3.40;;;28.20;61.10;;;;;;5017437;28;20065;-80
2021/06/09 12:17:31;;;;;;;4.97;3.50;;;28.10;61.20;;;;;;5018225;28;20086;-79
2021/06/09 12:20:16;;;;;;;5.18;3.53;;;28.00;61.70;;;;;;5013022;28;20033;-80
2021/06/09 12:22:48;;;;;;;5.35;3.30;;;28.00;60.50;;;;;;5013903;28;20014;-80
2021/06/09 12:25:19;;;;;;;5.95;2.90;;;28.00;59.80;;;;;;4991751;28;20038;-81
2021/06/09 12:28:21;;;;;;;5.05;3.45;;;28.00;60.20;;;;;;5013837;28;20119;-81
2021/06/09 12:30:54;;;;;;;7.38;4.07;;;;;;;;;;4935474;29;20542;-78
2021/06/09 12:33:21;;;;;;;4.25;3.75;;;;;;;;;;5001979;28;20038;-79
2021/06/09 12:35:47;;;;;;;4.40;3.15;;;;;;;;;;5014121;28;20041;-80
2021/06/09 12:38:13;;;;;;;4.30;3.88;;;;;;;;;;5007729;28;20033;-81
2021/06/09 12:40:45;;;;;;;6.32;3.72;;;28.00;61.10;;;;;;5015815;28;20230;-79
2021/06/09 12:43:12;;;;;;;5.15;3.53;;;28.00;61.30;;;;;;5012749;28;20077;-79
2021/06/09 12:45:44;;;;;;;16.13;4.43;;;28.10;61.90;;;;;;5010090;28;20022;-83
2021/06/09 12:48:13;;;;;;;8.10;4.00;;;29.90;63.10;;;;;;5008683;28;20055;-82
2021/06/09 12:50:40;;;;;;;7.00;3.85;;;27.70;61.20;;;;;;4990937;28;20030;-81
2021/06/09 12:53:10;;;;;;;6.97;3.63;;;;;;;;;;5010656;28;20030;-81
2021/06/09 12:55:39;;;;;;;6.90;3.83;;;27.70;61.90;;;;;;5010009;28;20030;-79
2021/06/09 12:58:08;;;;;;;12.10;3.90;;;27.90;59.90;;;;;;5007500;28;20060;-79
2021/06/09 13:00:46;;;;;;;34.90;5.65;;;28.10;60.30;;;;;;5008869;28;20037;-80
2021/06/09 13:03:27;;;;;;;22.75;4.28;;;28.20;57.80;;;;;;5007443;28;20034;-81
2021/06/09 13:05:53;;;;;;;7.22;4.35;;;;;;;;;;5006345;28;20029;-80
2021/06/09 13:08:21;;;;;;;3.50;2.88;;;28.40;56.50;;;;;;5005148;28;20126;-80
2021/06/09 13:10:49;;;;;;;5.78;3.30;;;28.50;56.10;;;;;;5007208;28;20124;-81
2021/06/09 13:13:21;;;;;;;5.05;3.60;;;28.60;57.00;;;;;;5010146;28;20028;-81
2021/06/09 13:15:56;;;;;;;7.95;3.50;;;28.60;57.40;;;;;;5012673;28;20030;-80